»·PEaware :: SWA6576 KATL-KPHL

SWA6576 :: KATL-KPHL

FLIGHT INFORMATION

Flight Status: Arrived
Operator:
Southwest Airlines
More flights by this operator :: More flights under this callsign
Pilot: Christopher D. (28128)
Aircraft: BOEING 737-700
(B737)
More flights by this aircraft type
Origin: KATL Hartsfield-Jackson Atlanta
United States
Destination: KPHL Philadelphia Intl
United States
More flights between these airports :: More routes between these airports
Route: RW27 PHMMR2 SPA BEARI FAK PAATS3
File this flight plan on PilotEdge
Remarks:
Altitude:
(Current/Filed)
32,000ft
Speed:
(Current/Filed)
265kts
Departed: 04-Mar-20 02:37 PM
Arrived: 04-Mar-20 04:38 PM
Distance/Time
Traveled:
578nm/2:01
Distance/Time
To Go:
Arrived

Flight Plot

Page will automatically refresh every two minutes.

Flight plan parsing failed; only flown route is shown


Map Options




Map Legend


Flown Route
Filed Route
Departure Airport
Arrival Airport
Navaid (VOR, NDB)
Fix

Horizontal Profiles

Position Reports

Time Latitude Longitude Heading Altitude Ground
Speed
04-Mar-20 13:28 33.639067 -84.433261 89 1025ft 0kts
04-Mar-20 13:29 33.639067 -84.433261 89 1025ft 0kts
04-Mar-20 13:30 33.639067 -84.433261 89 1025ft 0kts
04-Mar-20 13:31 33.639067 -84.433261 89 1025ft 0kts
04-Mar-20 13:32 33.639067 -84.433261 89 1025ft 0kts
04-Mar-20 13:33 33.639067 -84.433261 89 1025ft 0kts
04-Mar-20 13:34 33.639067 -84.433261 89 1025ft 0kts
04-Mar-20 13:35 33.639067 -84.433261 89 1025ft 0kts
04-Mar-20 13:36 33.639067 -84.433261 89 1025ft 0kts
04-Mar-20 13:37 33.639067 -84.433261 89 1025ft 0kts
04-Mar-20 13:38 33.639067 -84.433261 89 1025ft 0kts
04-Mar-20 13:39 33.639067 -84.433261 89 1025ft 0kts
04-Mar-20 13:40 33.639067 -84.433261 89 1025ft 0kts
04-Mar-20 13:41 33.639067 -84.433261 89 1025ft 0kts
04-Mar-20 13:42 33.639067 -84.433261 89 1025ft 0kts
04-Mar-20 13:43 33.639067 -84.433261 89 1025ft 0kts
04-Mar-20 13:44 33.639067 -84.433261 89 1025ft 0kts
04-Mar-20 13:45 33.639067 -84.433261 89 1025ft 0kts
04-Mar-20 13:46 33.639067 -84.433261 89 1025ft 0kts
04-Mar-20 13:47 33.639067 -84.433261 89 1025ft 0kts
04-Mar-20 13:48 33.639067 -84.433261 89 1025ft 0kts
04-Mar-20 13:49 33.639067 -84.433261 89 1025ft 0kts
04-Mar-20 13:50 33.639067 -84.433261 89 1025ft 0kts
04-Mar-20 13:51 33.639067 -84.433261 89 1025ft 0kts
04-Mar-20 13:52 33.639067 -84.433261 89 1025ft 0kts
04-Mar-20 13:53 33.639067 -84.433261 89 1025ft 0kts
04-Mar-20 13:54 33.639067 -84.433261 89 1025ft 0kts
04-Mar-20 13:55 33.639067 -84.433261 89 1025ft 0kts
04-Mar-20 13:56 33.639067 -84.433261 89 1025ft 0kts
04-Mar-20 13:57 33.639067 -84.433261 89 1025ft 0kts
04-Mar-20 13:58 33.639067 -84.433261 89 1025ft 0kts
04-Mar-20 13:59 33.639067 -84.433261 89 1025ft 0kts
04-Mar-20 14:00 33.639067 -84.433261 89 1025ft 0kts
04-Mar-20 14:01 33.639067 -84.433261 89 1025ft 0kts
04-Mar-20 14:02 33.639067 -84.433261 89 1025ft 0kts
04-Mar-20 14:03 33.639067 -84.433261 89 1025ft 0kts
04-Mar-20 14:04 33.639067 -84.433261 89 1025ft 0kts
04-Mar-20 14:05 33.639067 -84.433261 89 1025ft 0kts
04-Mar-20 14:06 33.639067 -84.433261 89 1025ft 0kts
04-Mar-20 14:07 33.639067 -84.433261 89 1025ft 0kts
04-Mar-20 14:08 33.639067 -84.433261 89 1025ft 0kts
04-Mar-20 14:09 33.639067 -84.433261 89 1025ft 0kts
04-Mar-20 14:10 33.639067 -84.433261 89 1025ft 0kts
04-Mar-20 14:11 33.639067 -84.433261 89 1025ft 0kts
04-Mar-20 14:12 33.639067 -84.433261 89 1025ft 0kts
04-Mar-20 14:13 33.639067 -84.433261 89 1025ft 0kts
04-Mar-20 14:14 33.639067 -84.433261 89 1025ft 0kts
04-Mar-20 14:15 33.639067 -84.433261 89 1025ft 0kts
04-Mar-20 14:16 33.639067 -84.433261 89 1025ft 0kts
04-Mar-20 14:17 33.639067 -84.433261 89 1025ft 0kts
04-Mar-20 14:18 33.639067 -84.433261 89 1025ft 0kts
04-Mar-20 14:19 33.639067 -84.433261 89 1025ft 0kts
04-Mar-20 14:20 33.639067 -84.433261 89 1025ft 0kts
04-Mar-20 14:21 33.639067 -84.433261 89 1025ft 0kts
04-Mar-20 14:22 33.639067 -84.433350 90 1025ft 2kts
04-Mar-20 14:23 33.639357 -84.433917 165 1025ft 2kts
04-Mar-20 14:24 33.639520 -84.433936 180 1025ft 0kts
04-Mar-20 14:25 33.639434 -84.433937 180 1025ft 2kts
04-Mar-20 14:26 33.637299 -84.433921 175 1025ft 8kts
04-Mar-20 14:27 33.636628 -84.432408 90 1025ft 4kts
04-Mar-20 14:28 33.636339 -84.431009 152 1025ft 9kts
04-Mar-20 14:29 33.635799 -84.427165 90 1020ft 12kts
04-Mar-20 14:30 33.635798 -84.423324 90 1020ft 10kts
04-Mar-20 14:31 33.635799 -84.419897 90 1019ft 10kts
04-Mar-20 14:32 33.635801 -84.416079 90 1015ft 12kts
04-Mar-20 14:33 33.635802 -84.411256 90 1007ft 8kts
04-Mar-20 14:34 33.635631 -84.409240 129 1006ft 0kts
04-Mar-20 14:35 33.634916 -84.409189 213 1006ft 8kts
04-Mar-20 14:36 33.634765 -84.435029 270 1501ft 195kts
04-Mar-20 14:37 33.619230 -84.506844 244 4847ft 246kts
04-Mar-20 14:38 33.577111 -84.571142 209 8264ft 259kts
04-Mar-20 14:39 33.505961 -84.582106 165 11688ft 272kts
04-Mar-20 14:40 33.456964 -84.517668 98 15132ft 287kts
04-Mar-20 14:41 33.456361 -84.420210 89 18553ft 302kts
04-Mar-20 14:42 33.477362 -84.321512 61 21762ft 323kts
04-Mar-20 14:43 33.539779 -84.233913 45 23795ft 371kts
04-Mar-20 14:44 33.615378 -84.141849 45 25801ft 395kts
04-Mar-20 14:45 33.693208 -84.046690 45 27799ft 408kts
04-Mar-20 14:46 33.773669 -83.948044 45 29802ft 421kts
04-Mar-20 14:47 33.856857 -83.845763 45 31809ft 434kts
04-Mar-20 14:48 33.941622 -83.741222 45 31999ft 434kts
04-Mar-20 14:49 34.018924 -83.619624 53 31997ft 468kts
04-Mar-20 14:50 34.095766 -83.494263 53 32000ft 466kts
04-Mar-20 14:51 34.172509 -83.368707 53 31999ft 465kts
04-Mar-20 14:52 34.249086 -83.242987 53 31999ft 465kts
04-Mar-20 14:54 34.325745 -83.116720 53 31999ft 465kts
04-Mar-20 14:55 34.402481 -82.991158 53 31999ft 465kts
04-Mar-20 14:56 34.475918 -82.870772 53 31999ft 465kts
04-Mar-20 14:57 34.546129 -82.755288 53 31999ft 465kts
04-Mar-20 14:58 34.632472 -82.612759 53 31999ft 465kts
04-Mar-20 14:59 34.708176 -82.485227 54 31999ft 465kts
04-Mar-20 15:00 34.783312 -82.357130 54 31999ft 465kts
04-Mar-20 15:01 34.858283 -82.229011 54 31999ft 465kts
04-Mar-20 15:02 34.933168 -82.100573 54 31999ft 465kts
04-Mar-20 15:03 35.007405 -81.972784 54 32000ft 465kts
04-Mar-20 15:04 35.084499 -81.844977 52 32000ft 465kts
04-Mar-20 15:05 35.162425 -81.719550 52 31999ft 465kts
04-Mar-20 15:06 35.240394 -81.593379 52 32000ft 465kts
04-Mar-20 15:07 35.318240 -81.466959 52 32000ft 465kts
04-Mar-20 15:08 35.395960 -81.340286 53 32000ft 465kts
04-Mar-20 15:09 35.461296 -81.233444 53 32000ft 465kts
04-Mar-20 15:10 35.550976 -81.086255 53 32000ft 465kts
04-Mar-20 15:11 35.628117 -80.959148 53 32000ft 465kts
04-Mar-20 15:11 35.692413 -80.852851 53 32000ft 465kts
04-Mar-20 15:13 35.782368 -80.703585 53 32000ft 465kts
04-Mar-20 15:14 35.859177 -80.575623 53 32000ft 465kts
04-Mar-20 15:14 35.923135 -80.468708 53 32000ft 465kts
04-Mar-20 15:16 36.012743 -80.318356 53 32000ft 465kts
04-Mar-20 15:17 36.086436 -80.194218 53 32000ft 465kts
04-Mar-20 15:17 36.152746 -80.082129 53 32000ft 465kts
04-Mar-20 15:18 36.228890 -79.952967 53 32000ft 465kts
04-Mar-20 15:20 36.317698 -79.801706 53 32000ft 465kts
04-Mar-20 15:20 36.380927 -79.693606 53 32000ft 465kts
04-Mar-20 15:21 36.456704 -79.563602 53 32000ft 465kts
04-Mar-20 15:22 36.532418 -79.433209 53 32000ft 465kts
04-Mar-20 15:23 36.607720 -79.303030 54 32000ft 465kts
04-Mar-20 15:24 36.683501 -79.171521 54 32000ft 465kts
04-Mar-20 15:25 36.758521 -79.040829 54 32000ft 465kts
04-Mar-20 15:26 36.833850 -78.909091 54 32000ft 465kts
04-Mar-20 15:27 36.908725 -78.777635 54 32000ft 465kts
04-Mar-20 15:28 36.983483 -78.645873 54 32000ft 465kts
04-Mar-20 15:29 37.058076 -78.513888 54 32000ft 465kts
04-Mar-20 15:30 37.132750 -78.381241 54 32000ft 465kts
04-Mar-20 15:31 37.206045 -78.250439 52 31999ft 465kts
04-Mar-20 15:32 37.295595 -78.133145 46 31999ft 465kts
04-Mar-20 15:33 37.325147 -78.094658 46 31999ft 465kts
04-Mar-20 15:34 37.325147 -78.094658 46 31999ft 465kts
04-Mar-20 15:35 37.325147 -78.094658 46 31999ft 465kts
04-Mar-20 15:36 37.325147 -78.094658 46 31999ft 465kts
04-Mar-20 15:37 37.325147 -78.094658 46 31999ft 465kts
04-Mar-20 15:38 37.325147 -78.094658 46 31999ft 465kts
04-Mar-20 15:39 37.325147 -78.094658 46 31999ft 465kts
04-Mar-20 15:40 37.325147 -78.094658 46 31999ft 465kts
04-Mar-20 15:41 37.325147 -78.094658 46 31999ft 465kts
04-Mar-20 15:42 37.325147 -78.094658 46 31999ft 465kts
04-Mar-20 15:43 37.325147 -78.094658 46 31999ft 465kts
04-Mar-20 15:44 37.325147 -78.094658 46 31999ft 465kts
04-Mar-20 15:45 37.325147 -78.094658 46 31999ft 465kts
04-Mar-20 15:46 37.325147 -78.094658 46 31999ft 465kts
04-Mar-20 15:47 37.325147 -78.094658 46 31999ft 465kts
04-Mar-20 15:48 37.325147 -78.094658 46 31999ft 465kts
04-Mar-20 15:49 37.325147 -78.094658 46 31999ft 465kts
04-Mar-20 15:50 37.325147 -78.094658 46 31999ft 465kts
04-Mar-20 15:51 37.325147 -78.094658 46 31999ft 465kts
04-Mar-20 15:52 37.399700 -77.997343 46 32000ft 465kts
04-Mar-20 15:53 37.489348 -77.879953 46 32000ft 465kts
04-Mar-20 15:54 37.587689 -77.774608 35 32000ft 466kts
04-Mar-20 15:55 37.692528 -77.679986 35 32000ft 465kts
04-Mar-20 15:56 37.797737 -77.584474 35 32000ft 465kts
04-Mar-20 15:57 37.902257 -77.489088 35 32000ft 465kts
04-Mar-20 15:58 38.007366 -77.393003 35 32000ft 465kts
04-Mar-20 15:59 38.112016 -77.296987 36 32000ft 465kts
04-Mar-20 16:00 38.216733 -77.200561 36 32000ft 465kts
04-Mar-20 16:01 38.321492 -77.103747 36 32000ft 465kts
04-Mar-20 16:02 38.425799 -77.006999 36 32000ft 465kts
04-Mar-20 16:03 38.530419 -76.909606 36 32000ft 465kts
04-Mar-20 16:04 38.634206 -76.811686 41 31999ft 465kts
04-Mar-20 16:05 38.711752 -76.683109 64 29938ft 451kts
04-Mar-20 16:06 38.749932 -76.533947 74 29004ft 447kts
04-Mar-20 16:07 38.781524 -76.381466 74 29000ft 444kts
04-Mar-20 16:08 38.813192 -76.228073 75 28999ft 444kts
04-Mar-20 16:09 38.844534 -76.075146 75 29000ft 444kts
04-Mar-20 16:10 38.875627 -75.924822 70 26588ft 428kts
04-Mar-20 16:11 38.937668 -75.800074 44 23719ft 409kts
04-Mar-20 16:12 39.024043 -75.713369 32 22002ft 368kts
04-Mar-20 16:13 39.109908 -75.673376 6 21539ft 317kts
04-Mar-20 16:14 39.195889 -75.663254 4 19330ft 306kts
04-Mar-20 16:15 39.277990 -75.649912 20 17128ft 295kts
04-Mar-20 16:16 39.347720 -75.598441 33 16003ft 288kts
04-Mar-20 16:17 39.398019 -75.525837 64 14732ft 273kts
04-Mar-20 16:18 39.426349 -75.435896 68 12857ft 267kts
04-Mar-20 16:19 39.452917 -75.347096 69 10857ft 263kts
04-Mar-20 16:20 39.494761 -75.272068 43 8857ft 258kts
04-Mar-20 16:21 39.543789 -75.212100 43 7500ft 213kts
04-Mar-20 16:22 39.584652 -75.161957 43 7500ft 201kts
04-Mar-20 16:23 39.624365 -75.113145 43 7500ft 195kts
04-Mar-20 16:24 39.668194 -75.074561 10 6868ft 192kts
04-Mar-20 16:25 39.719999 -75.077280 354 6200ft 180kts
04-Mar-20 16:26 39.769975 -75.081696 6 6173ft 176kts
04-Mar-20 16:27 39.808178 -75.045850 64 4644ft 176kts
04-Mar-20 16:28 39.823686 -74.986380 74 3264ft 166kts
04-Mar-20 16:29 39.834960 -74.933030 74 2999ft 150kts
04-Mar-20 16:30 39.865756 -74.928991 309 3004ft 152kts
04-Mar-20 16:31 39.896455 -74.964998 323 2241ft 150kts
04-Mar-20 16:32 39.916434 -75.009011 273 2100ft 144kts
04-Mar-20 16:33 39.908247 -75.060058 254 1800ft 144kts
04-Mar-20 16:34 39.897650 -75.110156 255 1118ft 140kts
04-Mar-20 16:35 39.887674 -75.160449 255 809ft 144kts
04-Mar-20 16:36 39.877863 -75.209601 255 253ft 138kts
04-Mar-20 16:37 39.871771 -75.240270 257 11ft 18kts
04-Mar-20 16:38 39.871838 -75.244031 285 11ft 6kts
04-Mar-20 16:39 39.872585 -75.245074 47 11ft 3kts
04-Mar-20 16:40 39.900630 -75.094877 255 1267ft 142kts
04-Mar-20 16:41 39.890920 -75.144845 254 998ft 146kts
04-Mar-20 16:42 39.873239 -75.232895 255 11ft 89kts
04-Mar-20 16:43 39.874944 -75.224219 255 34ft 128kts
04-Mar-20 16:44 39.875607 -75.220967 255 84ft 131kts
04-Mar-20 16:45 39.873843 -75.229867 255 11ft 112kts
04-Mar-20 16:46 39.873360 -75.232286 255 11ft 94kts
04-Mar-20 16:47 39.873264 -75.232765 255 11ft 90kts
04-Mar-20 16:48 33.458780 -84.385767 80 19723ft 308kts
04-Mar-20 16:49 39.874584 -75.226051 256 18ft 125kts
04-Mar-20 16:50 39.872762 -75.244517 75 11ft 2kts
04-Mar-20 16:51 39.873877 -75.242295 354 11ft 6kts

Navigation Log

Ident Type
Flight plan parsing failed, navigation log unavailable